Time;durP1;ratioP1;P1;durP2;ratioP2;P2;SDS_P1;SDS_P2;PMS_P1;PMS_P2;Temp;Humidity;BMP_temperature;BMP_pressure;BME280_temperature;BME280_humidity;BME280_pressure;Samples;Min_cycle;Max_cycle;Signal;HPM_P1;HPM_P2
2022/12/23 00:00:52;;;;;;;;;2.00;2.00;;;;;20.08;61.51;99668.23;105217;1299;19320;-60
2022/12/23 00:03:23;;;;;;;;;2.00;2.00;;;;;20.08;61.72;99666.98;106291;1292;19547;-61
2022/12/23 00:05:50;;;;;;;;;1.00;1.00;;;;;20.09;61.59;99670.50;105300;1300;20325;-61
2022/12/23 00:08:18;;;;;;;;;4.00;4.00;;;;;20.09;61.57;99670.91;105303;1284;20771;-61
2022/12/23 00:10:45;;;;;;;;;;;;;;;20.09;61.61;99669.66;105303;1291;18425;-62
2022/12/23 00:15:58;;;;;;;;;;;;;;;20.09;61.64;99666.48;105348;1300;19317;-62
2022/12/23 00:18:25;;;;;;;;;2.00;2.00;;;;;20.09;61.41;99669.55;105264;1282;18643;-62
2022/12/23 00:20:53;;;;;;;;;1.50;1.50;;;;;20.08;61.60;99664.69;105341;1274;20390;-61
2022/12/23 00:23:20;;;;;;;;;2.00;2.00;;;;;20.08;61.50;99663.01;105339;1282;19178;-61
2022/12/23 00:25:48;;;;;;;;;;;;;;;20.08;61.54;99656.85;105305;1300;21883;-62
2022/12/23 00:28:15;;;;;;;;;4.00;2.00;;;;;20.08;61.54;99658.66;105348;1300;19543;-62
2022/12/23 00:30:43;;;;;;;;;;;;;;;20.08;61.57;99659.75;105355;1287;19687;-60
2022/12/23 00:33:10;;;;;;;;;;;;;;;20.09;61.64;99661.97;105280;1303;18294;-61
2022/12/23 00:35:37;;;;;;;;;;;;;;;20.07;61.57;99661.66;105245;1299;20053;-61
2022/12/23 00:38:05;;;;;;;;;1.00;1.00;;;;;20.08;61.65;99655.18;105280;1282;20832;-61
2022/12/23 00:43:17;;;;;;;;;1.00;1.00;;;;;20.08;61.46;99660.24;105355;1291;18486;-60
2022/12/23 00:45:45;;;;;;;;;1.00;1.00;;;;;20.08;61.69;99662.50;105279;1284;22860;-60
2022/12/23 00:50:57;;;;;;;;;2.00;2.00;;;;;20.08;61.74;99667.45;105303;1298;18658;-62
2022/12/23 00:53:25;;;;;;;;;2.00;2.00;;;;;20.08;61.70;99668.36;105267;1275;20175;-61
2022/12/23 00:55:52;;;;;;;;;2.00;2.00;;;;;20.07;61.55;99670.54;105245;1288;19100;-61
2022/12/23 00:58:20;;;;;;;;;1.50;1.50;;;;;20.09;61.66;99672.86;105258;1282;20524;-62
2022/12/23 01:06:18;;;;;;;;;;;;;;;20.09;61.67;99674.56;105315;1282;18550;-60
2022/12/23 01:08:45;;;;;;;;;2.00;2.00;;;;;20.07;61.43;99679.45;105304;1298;20752;-61
2022/12/23 01:11:12;;;;;;;;;1.50;1.00;;;;;20.07;61.67;99684.22;105309;1282;19194;-63
2022/12/23 01:13:40;;;;;;;;;2.00;1.00;;;;;20.08;61.57;99682.42;105350;1299;20112;-61
2022/12/23 01:16:07;;;;;;;;;1.00;1.00;;;;;20.08;61.41;99679.91;105381;1291;20879;-59
2022/12/23 01:18:35;;;;;;;;;1.00;1.00;;;;;20.07;61.43;99680.66;105404;1297;21920;-63
2022/12/23 01:21:03;;;;;;;;;1.00;1.00;;;;;20.08;61.47;99673.30;105366;1300;20007;-59
2022/12/23 01:23:30;;;;;;;;;1.00;1.00;;;;;20.07;61.51;99668.27;105306;1284;19460;-61
2022/12/23 01:25:58;;;;;;;;;1.00;1.00;;;;;20.06;61.78;99670.07;105322;1293;20226;-58
2022/12/23 01:28:25;;;;;;;;;1.00;1.00;;;;;20.07;61.46;99665.30;105374;1290;18490;-62
2022/12/23 01:30:53;;;;;;;;;1.00;1.00;;;;;20.08;61.43;99676.15;105397;1282;22737;-60
2022/12/23 01:33:20;;;;;;;;;1.00;1.00;;;;;20.07;61.45;99680.87;105304;1278;18840;-60
2022/12/23 01:35:48;;;;;;;;;1.00;1.00;;;;;20.06;61.57;99677.40;105345;1274;20117;-59
2022/12/23 01:38:15;;;;;;;;;;;;;;;20.06;61.49;99673.42;105351;1300;19178;-60
2022/12/23 01:40:42;;;;;;;;;2.00;2.00;;;;;20.07;61.42;99669.95;105343;1281;22478;-61
2022/12/23 01:43:10;;;;;;;;;1.50;1.50;;;;;20.07;61.55;99673.09;105370;1291;20162;-61
2022/12/23 01:45:37;;;;;;;;;1.00;1.00;;;;;20.06;61.33;99677.95;105397;1290;21402;-61
2022/12/23 01:48:05;;;;;;;;;1.00;1.00;;;;;20.06;61.44;99676.69;105323;1298;18448;-61
2022/12/23 01:50:32;;;;;;;;;;;;;;;20.06;61.53;99674.96;105392;1292;18489;-60
2022/12/23 01:53:00;;;;;;;;;1.00;1.00;;;;;20.06;61.32;99673.77;105384;1299;21049;-60
2022/12/23 01:55:27;;;;;;;;;2.00;2.00;;;;;20.06;61.44;99674.01;105342;1282;18432;-58
2022/12/23 01:57:55;;;;;;;;;2.00;2.00;;;;;20.06;61.30;99682.17;105369;1275;18805;-60
2022/12/23 02:11:37;;;;;;;;;2.00;1.00;;;;;20.07;61.44;99696.23;104961;1305;18554;-60
2022/12/23 02:16:50;;;;;;;;;2.00;2.00;;;;;20.06;61.40;99699.91;104879;1296;20785;-59
2022/12/23 02:19:17;;;;;;;;;1.00;1.00;;;;;20.06;61.29;99703.17;104978;1280;20271;-59
2022/12/23 02:21:45;;;;;;;;;1.00;1.00;;;;;20.05;61.23;99696.76;105053;1299;18600;-60
2022/12/23 02:24:12;;;;;;;;;2.00;2.00;;;;;20.05;61.38;99690.61;104974;1280;20835;-60
2022/12/23 02:26:39;;;;;;;;;1.00;1.00;;;;;20.03;61.52;99686.48;104971;1289;23624;-60
2022/12/23 02:29:07;;;;;;;;;1.00;1.00;;;;;20.03;61.18;99683.55;104981;1288;18627;-60
2022/12/23 02:31:35;;;;;;;;;1.00;1.00;;;;;20.05;61.10;99685.63;105087;1294;22273;-61
2022/12/23 02:34:02;;;;;;;;;2.00;2.00;;;;;20.05;61.45;99689.59;105117;1284;18441;-61
2022/12/23 02:36:29;;;;;;;;;1.00;1.00;;;;;20.04;61.18;99683.64;105002;1302;18658;-61
2022/12/23 02:38:57;;;;;;;;;1.00;1.00;;;;;20.03;61.30;99684.48;105354;1300;22734;-60
2022/12/23 02:41:24;;;;;;;;;1.00;1.00;;;;;20.04;61.26;99681.19;105328;1303;18447;-60
2022/12/23 02:43:52;;;;;;;;;1.00;1.00;;;;;20.04;61.04;99682.97;105377;1282;18618;-61
2022/12/23 02:46:19;;;;;;;;;1.00;1.00;;;;;20.04;61.08;99689.88;105333;1282;22920;-60
2022/12/23 02:48:47;;;;;;;;;2.00;1.00;;;;;20.03;61.04;99693.35;105345;1300;18381;-61
2022/12/23 02:51:14;;;;;;;;;1.00;1.00;;;;;20.03;61.31;99692.46;105375;1297;18589;-59
2022/12/23 02:53:41;;;;;;;;;1.00;1.00;;;;;20.03;61.14;99694.09;105375;1290;20834;-62
2022/12/23 02:56:09;;;;;;;;;2.00;1.00;;;;;20.03;61.34;99686.31;105361;1283;21088;-60
2022/12/23 02:58:36;;;;;;;;;1.00;1.00;;;;;20.03;61.10;99690.17;105309;1300;19025;-61
2022/12/23 03:01:04;;;;;;;;;1.00;1.00;;;;;20.03;61.13;99690.55;105403;1297;20993;-60
2022/12/23 03:03:31;;;;;;;;;1.00;1.00;;;;;20.04;61.44;99693.52;105366;1274;18384;-61
2022/12/23 03:05:59;;;;;;;;;1.00;1.00;;;;;20.03;61.10;99695.44;105358;1300;18682;-61
2022/12/23 03:08:26;;;;;;;;;1.00;1.00;;;;;20.04;60.96;99700.76;105342;1299;19617;-61
2022/12/23 03:10:54;;;;;;;;;1.00;1.00;;;;;20.03;60.90;99696.53;105346;1284;22808;-61
2022/12/23 03:13:21;;;;;;;;;2.00;2.00;;;;;20.02;61.17;99693.17;105323;1300;19976;-60
2022/12/23 03:15:48;;;;;;;;;2.00;2.00;;;;;20.02;61.04;99692.05;105389;1284;20826;-61
2022/12/23 03:18:16;;;;;;;;;1.00;1.00;;;;;20.02;60.95;99689.58;105317;1291;19947;-60
2022/12/23 03:20:43;;;;;;;;;1.00;1.00;;;;;20.00;61.01;99687.15;105353;1275;18421;-61
2022/12/23 03:23:11;;;;;;;;;2.00;1.00;;;;;20.01;60.96;99687.45;105366;1274;19317;-60
2022/12/23 03:25:38;;;;;;;;;1.00;1.00;;;;;20.02;61.02;99681.88;105313;1282;20218;-61
2022/12/23 03:28:06;;;;;;;;;1.00;1.00;;;;;20.01;61.04;99687.95;105427;1300;20090;-61
2022/12/23 03:30:33;;;;;;;;;1.00;1.00;;;;;20.00;60.96;99684.84;105380;1274;20760;-60
2022/12/23 03:33:00;;;;;;;;;1.00;1.00;;;;;20.00;60.94;99682.50;105374;1300;18399;-61
2022/12/23 03:35:28;;;;;;;;;1.50;1.50;;;;;20.02;61.01;99685.19;105347;1274;18488;-59
2022/12/23 03:37:55;;;;;;;;;1.00;1.00;;;;;20.01;60.90;99683.59;105397;1280;22198;-60
2022/12/23 03:40:23;;;;;;;;;;;;;;;20.01;60.97;99671.66;105366;1282;18411;-57
2022/12/23 03:42:50;;;;;;;;;1.00;1.00;;;;;20.01;61.00;99671.50;105377;1300;18803;-60
2022/12/23 03:45:18;;;;;;;;;1.00;1.00;;;;;20.00;60.96;99674.55;105328;1282;19362;-60
2022/12/23 03:47:45;;;;;;;;;1.00;1.00;;;;;20.00;61.11;99668.95;105364;1282;19928;-60
2022/12/23 03:50:12;;;;;;;;;1.00;1.00;;;;;20.00;60.96;99668.73;105330;1292;20262;-60
2022/12/23 03:52:40;;;;;;;;;1.00;1.00;;;;;19.99;60.80;99668.52;105329;1298;19312;-60
2022/12/23 03:55:07;;;;;;;;;;;;;;;19.99;61.09;99667.82;105400;1284;22295;-58
2022/12/23 03:57:35;;;;;;;;;1.00;1.00;;;;;19.99;60.81;99668.69;105374;1298;18927;-60
2022/12/23 04:00:02;;;;;;;;;1.00;1.00;;;;;19.99;60.91;99665.05;105340;1287;20926;-59
2022/12/23 04:02:30;;;;;;;;;1.00;1.00;;;;;19.99;61.09;99662.59;105337;1274;19571;-60
2022/12/23 04:04:57;;;;;;;;;1.00;1.00;;;;;19.99;60.98;99657.02;105357;1300;18544;-60
2022/12/23 04:07:24;;;;;;;;;1.00;1.00;;;;;19.97;61.05;99659.29;105364;1288;19181;-61
2022/12/23 04:09:52;;;;;;;;;1.00;1.00;;;;;19.98;60.68;99659.77;105419;1274;19579;-61
2022/12/23 04:12:19;;;;;;;;;;;;;;;19.98;60.93;99656.27;105365;1284;20002;-61
2022/12/23 04:14:47;;;;;;;;;1.00;1.00;;;;;19.97;60.96;99660.51;105341;1297;20919;-61
2022/12/23 04:17:14;;;;;;;;;1.00;1.00;;;;;19.98;60.66;99658.84;105369;1278;18536;-60
2022/12/23 04:19:42;;;;;;;;;1.00;1.00;;;;;19.98;60.87;99663.84;105363;1300;19994;-60
2022/12/23 04:22:09;;;;;;;;;1.00;1.00;;;;;19.98;60.95;99669.56;105322;1300;19326;-60
2022/12/23 04:24:37;;;;;;;;;1.00;1.00;;;;;19.98;60.99;99674.61;105383;1300;19628;-60
2022/12/23 04:27:04;;;;;;;;;1.00;1.00;;;;;19.97;61.05;99677.44;105357;1282;22935;-61
2022/12/23 04:29:31;;;;;;;;;2.00;2.00;;;;;19.98;60.82;99679.86;105321;1282;20791;-61
2022/12/23 04:31:59;;;;;;;;;1.00;1.00;;;;;19.99;60.79;99688.30;105332;1282;18474;-59
2022/12/23 04:34:26;;;;;;;;;1.00;1.00;;;;;19.98;60.75;99686.71;105260;1285;18685;-60
2022/12/23 04:36:54;;;;;;;;;;;;;;;19.98;60.71;99680.35;105383;1282;19368;-61
2022/12/23 04:39:21;;;;;;;;;1.00;1.00;;;;;19.96;61.03;99674.43;105359;1300;18553;-59
2022/12/23 04:41:49;;;;;;;;;2.00;1.00;;;;;19.96;60.85;99674.67;105361;1300;20134;-59
2022/12/23 04:44:16;;;;;;;;;1.00;1.00;;;;;19.96;60.78;99676.77;105326;1282;20776;-60
2022/12/23 04:46:44;;;;;;;;;1.00;1.00;;;;;19.97;60.55;99683.60;105335;1291;22711;-60
2022/12/23 04:49:11;;;;;;;;;2.00;2.00;;;;;19.96;60.76;99684.30;105368;1282;19946;-60
2022/12/23 04:51:38;;;;;;;;;1.00;1.00;;;;;19.96;60.62;99686.48;105372;1282;19370;-60
2022/12/23 04:54:06;;;;;;;;;1.00;1.00;;;;;19.97;60.70;99681.11;105332;1291;23398;-60
2022/12/23 04:56:33;;;;;;;;;;;;;;;19.97;60.61;99686.91;105374;1282;20688;-60
2022/12/23 04:59:03;;;;;;;;;1.00;1.00;;;;;19.97;60.67;99689.29;105387;1298;20356;-62
2022/12/23 05:01:30;;;;;;;;;1.00;1.00;;;;;19.96;60.44;99683.71;105406;1282;18460;-61
2022/12/23 05:03:57;;;;;;;;;1.00;1.00;;;;;19.96;60.62;99677.77;105375;1303;18528;-62
2022/12/23 05:06:25;;;;;;;;;1.00;1.00;;;;;19.96;60.68;99681.80;105354;1284;20800;-60
2022/12/23 05:08:52;;;;;;;;;1.00;1.00;;;;;19.96;60.42;99676.98;105353;1293;18407;-61
2022/12/23 05:11:20;;;;;;;;;1.00;1.00;;;;;19.96;60.64;99678.31;105355;1291;20537;-61
2022/12/23 05:13:47;;;;;;;;;1.00;1.00;;;;;19.96;60.64;99674.64;105329;1303;19534;-62
2022/12/23 05:16:14;;;;;;;;;1.00;1.00;;;;;19.96;60.65;99672.84;105371;1291;20420;-62
2022/12/23 05:18:42;;;;;;;;;1.00;1.00;;;;;19.95;60.65;99669.15;105366;1285;18513;-62
2022/12/23 05:21:10;;;;;;;;;1.00;1.00;;;;;19.97;60.38;99677.27;105339;1282;22763;-61
2022/12/23 05:23:37;;;;;;;;;1.00;1.00;;;;;19.96;60.56;99677.77;105308;1300;18420;-62
2022/12/23 05:26:04;;;;;;;;;1.00;1.00;;;;;19.96;60.61;99681.25;105340;1298;22914;-61
2022/12/23 05:28:32;;;;;;;;;1.00;1.00;;;;;19.95;60.83;99686.81;105271;1300;143065;-61
2022/12/23 05:31:00;;;;;;;;;1.00;1.00;;;;;19.95;60.60;99684.59;105385;1284;21450;-62
2022/12/23 05:33:27;;;;;;;;;1.00;1.00;;;;;19.95;60.65;99683.05;105321;1294;20031;-61
2022/12/23 05:35:54;;;;;;;;;1.00;1.00;;;;;19.95;60.71;99684.26;105317;1278;19306;-62
2022/12/23 05:38:22;;;;;;;;;1.00;1.00;;;;;19.96;60.71;99688.52;105349;1292;19516;-61
2022/12/23 05:40:49;;;;;;;;;1.00;1.00;;;;;19.94;60.78;99688.48;105305;1292;20209;-61
2022/12/23 05:43:17;;;;;;;;;1.00;1.00;;;;;19.94;60.53;99682.91;105333;1291;22900;-59
2022/12/23 05:45:44;;;;;;;;;1.00;1.00;;;;;19.95;60.49;99684.05;105347;1300;19554;-58
2022/12/23 05:48:12;;;;;;;;;1.00;1.00;;;;;19.94;60.66;99684.26;105312;1277;18398;-57
2022/12/23 05:50:39;;;;;;;;;2.00;1.00;;;;;19.93;60.50;99685.00;105317;1285;19656;-61
2022/12/23 05:53:07;;;;;;;;;;;;;;;19.94;60.38;99681.29;105327;1277;22672;-61
2022/12/23 05:55:34;;;;;;;;;2.00;1.00;;;;;19.94;60.39;99683.26;105322;1300;19867;-61
2022/12/23 05:58:01;;;;;;;;;1.00;1.00;;;;;19.93;60.39;99689.90;105377;1300;22924;-61
2022/12/23 06:00:29;;;;;;;;;2.00;2.00;;;;;19.94;60.77;99694.38;105321;1290;19373;-62
2022/12/23 06:02:56;;;;;;;;;2.00;1.00;;;;;19.94;60.44;99696.14;105333;1300;18818;-61
2022/12/23 06:05:24;;;;;;;;;1.00;1.00;;;;;19.95;60.59;99702.75;105336;1300;19598;-61
2022/12/23 06:07:51;;;;;;;;;1.00;1.00;;;;;19.94;60.45;99711.08;105361;1282;22984;-60
2022/12/23 06:10:19;;;;;;;;;1.00;1.00;;;;;19.94;60.58;99714.08;105340;1282;19935;-59
2022/12/23 06:12:46;;;;;;;;;2.00;2.00;;;;;19.93;60.65;99713.70;105386;1285;19538;-60
2022/12/23 06:15:14;;;;;;;;;;;;;;;19.93;60.31;99712.41;105372;1292;22677;-61
2022/12/23 06:17:41;;;;;;;;;1.00;1.00;;;;;19.93;60.37;99713.91;105401;1291;18630;-61
2022/12/23 06:20:09;;;;;;;;;2.00;2.00;;;;;19.92;60.55;99700.97;105335;1292;19686;-61
2022/12/23 06:22:37;;;;;;;;;1.00;1.00;;;;;19.91;60.57;99697.58;105443;1282;23419;-60
2022/12/23 06:25:04;;;;;;;;;1.00;1.00;;;;;19.92;60.54;99699.58;105348;1303;18934;-62
2022/12/23 06:27:32;;;;;;;;;2.00;2.00;;;;;19.92;60.40;99700.89;105315;1291;21603;-61
2022/12/23 06:30:00;;;;;;;;;;;;;;;19.92;60.33;99695.69;105330;1300;19566;-60
2022/12/23 06:32:27;;;;;;;;;1.00;1.00;;;;;19.92;60.59;99694.06;105309;1300;18313;-61
2022/12/23 06:34:55;;;;;;;;;1.00;1.00;;;;;19.92;60.55;99698.41;105340;1300;19231;-61
2022/12/23 06:37:22;;;;;;;;;1.00;1.00;;;;;19.92;60.65;99705.33;105355;1292;18408;-60
2022/12/23 06:39:49;;;;;;;;;1.00;1.00;;;;;19.93;60.35;99706.49;105340;1303;20059;-61
2022/12/23 06:42:17;;;;;;;;;1.00;1.00;;;;;19.92;60.33;99704.40;105312;1283;19677;-62
2022/12/23 06:44:44;;;;;;;;;1.00;1.00;;;;;19.92;60.23;99703.82;105345;1300;19640;-62
2022/12/23 06:47:12;;;;;;;;;1.00;1.00;;;;;19.92;60.25;99710.55;105288;1302;20022;-61
2022/12/23 06:49:39;;;;;;;;;1.00;1.00;;;;;19.93;60.25;99706.33;105357;1300;19282;-61
2022/12/23 06:52:07;;;;;;;;;2.00;2.00;;;;;19.91;60.33;99709.17;105399;1303;22649;-61
2022/12/23 06:54:34;;;;;;;;;1.00;1.00;;;;;19.92;60.25;99711.23;105385;1299;22253;-62
2022/12/23 06:57:02;;;;;;;;;1.00;1.00;;;;;19.92;60.19;99704.73;105213;1298;19389;-61
2022/12/23 06:59:30;;;;;;;;;1.00;1.00;;;;;19.92;60.45;99699.10;105364;1274;18452;-61
2022/12/23 07:01:57;;;;;;;;;1.00;1.00;;;;;19.93;60.41;99699.14;105321;1300;18749;-62
2022/12/23 07:04:25;;;;;;;;;1.00;1.00;;;;;19.93;60.42;99703.02;105300;1284;19310;-62
2022/12/23 07:06:52;;;;;;;;;1.00;1.00;;;;;19.94;60.62;99705.27;105359;1274;18919;-62
2022/12/23 07:09:20;;;;;;;;;2.00;1.00;;;;;19.94;60.25;99705.09;105307;1275;18950;-62
2022/12/23 07:11:47;;;;;;;;;2.00;2.00;;;;;19.95;60.45;99707.27;105243;1282;20825;-62
2022/12/23 07:14:15;;;;;;;;;2.00;1.00;;;;;19.96;60.65;99704.34;105179;1291;18496;-61
2022/12/23 07:16:42;;;;;;;;;2.00;1.00;;;;;19.97;60.73;99713.76;105237;1282;18571;-61
2022/12/23 07:19:09;;;;;;;;;1.00;1.00;;;;;19.95;60.80;99714.30;105384;1300;19676;-62
2022/12/23 07:21:37;;;;;;;;;1.00;1.00;;;;;19.96;60.79;99718.90;105277;1282;20832;-62
2022/12/23 07:24:05;;;;;;;;;1.00;1.00;;;;;19.96;60.77;99718.77;105305;1275;23322;-62
2022/12/23 07:26:32;;;;;;;;;1.00;1.00;;;;;19.95;60.90;99715.38;105334;1294;19284;-62
2022/12/23 07:28:59;;;;;;;;;1.00;1.00;;;;;19.95;60.96;99713.75;105307;1288;18408;-62
2022/12/23 07:31:27;;;;;;;;;1.50;1.50;;;;;19.95;60.83;99714.85;105341;1285;18813;-62
2022/12/23 07:33:54;;;;;;;;;1.00;1.00;;;;;19.95;60.82;99711.33;105364;1300;20032;-61
2022/12/23 07:36:22;;;;;;;;;1.67;1.00;;;;;19.94;60.66;99712.80;105341;1284;22480;-61
2022/12/23 07:38:50;;;;;;;;;1.00;1.00;;;;;19.94;60.85;99708.06;105311;1299;18578;-62
2022/12/23 07:41:17;;;;;;;;;;;;;;;19.93;60.80;99706.22;105224;1295;19600;-62
2022/12/23 07:43:45;;;;;;;;;1.00;1.00;;;;;19.93;60.94;99698.84;105300;1291;22294;-61
2022/12/23 07:46:12;;;;;;;;;;;;;;;19.96;60.86;99702.41;105362;1300;18512;-60
2022/12/23 07:48:40;;;;;;;;;3.50;3.00;;;;;19.97;60.63;99696.90;105358;1283;19303;-62
2022/12/23 07:51:07;;;;;;;;;2.00;2.00;;;;;19.95;60.88;99696.52;105367;1292;18463;-62
2022/12/23 07:53:35;;;;;;;;;2.00;2.00;;;;;19.93;60.46;99699.32;105333;1284;18643;-62
2022/12/23 07:56:02;;;;;;;;;2.00;2.00;;;;;19.96;60.50;99695.38;105311;1274;19464;-62
2022/12/23 07:58:30;;;;;;;;;2.50;1.50;;;;;20.01;60.48;99700.49;105303;1274;19799;-60
2022/12/23 08:00:57;;;;;;;;;2.00;2.00;;;;;20.03;60.43;99703.17;105340;1282;18504;-59
2022/12/23 08:03:25;;;;;;;;;2.00;2.00;;;;;20.04;60.71;99706.16;105235;1282;20993;-60
2022/12/23 08:05:52;;;;;;;;;2.00;2.00;;;;;20.04;60.96;99702.92;105304;1282;19512;-60
2022/12/23 08:08:19;;;;;;;;;2.00;2.00;;;;;20.03;60.82;99704.27;105320;1282;20021;-60
2022/12/23 08:10:47;;;;;;;;;2.00;2.00;;;;;20.04;60.83;99705.45;105308;1301;23405;-59
2022/12/23 08:13:15;;;;;;;;;3.00;3.00;;;;;20.05;60.78;99708.77;105330;1274;23332;-58
2022/12/23 08:15:42;;;;;;;;;3.00;3.00;;;;;20.06;60.95;99716.78;105318;1300;20099;-58
2022/12/23 08:18:09;;;;;;;;;2.00;2.00;;;;;20.06;61.15;99717.32;105306;1278;19552;-60
2022/12/23 08:20:37;;;;;;;;;2.00;2.00;;;;;20.06;60.96;99715.02;105354;1282;18567;-61
2022/12/23 08:23:04;;;;;;;;;1.00;1.00;;;;;20.07;61.18;99712.43;105319;1300;20104;-60
2022/12/23 08:25:32;;;;;;;;;4.00;4.00;;;;;20.06;61.41;99712.55;105317;1300;19332;-59
2022/12/23 08:27:59;;;;;;;;;4.00;3.00;;;;;20.06;61.20;99708.66;105342;1303;18510;-60
2022/12/23 08:30:27;;;;;;;;;1.00;1.00;;;;;20.06;61.31;99706.31;105318;1291;18533;-60
2022/12/23 08:32:54;;;;;;;;;7.00;2.00;;;;;20.08;61.17;99705.98;105308;1281;19608;-58
2022/12/23 08:35:22;;;;;;;;;2.00;2.00;;;;;20.09;60.98;99700.05;105304;1294;18573;-61
2022/12/23 08:37:49;;;;;;;;;4.00;2.00;;;;;20.10;61.16;99699.77;105321;1275;22581;-61
2022/12/23 08:40:17;;;;;;;;;4.00;4.00;;;;;20.11;61.17;99699.48;105352;1282;20764;-60
2022/12/23 08:42:44;;;;;;;;;2.00;2.00;;;;;20.10;61.22;99703.16;105425;1278;19512;-60
2022/12/23 08:45:12;;;;;;;;;3.00;3.00;;;;;20.11;61.11;99703.84;105301;1300;23702;-59
2022/12/23 08:47:39;;;;;;;;;1.00;1.00;;;;;20.10;61.22;99705.54;105339;1282;19327;-60
2022/12/23 08:50:07;;;;;;;;;2.00;2.00;;;;;20.09;61.30;99704.11;105325;1282;22727;-60
2022/12/23 08:52:34;;;;;;;;;4.00;2.00;;;;;20.07;61.30;99701.98;105327;1294;18606;-60
2022/12/23 08:55:02;;;;;;;;;3.00;3.00;;;;;20.05;61.68;99701.29;105438;1291;19523;-60
2022/12/23 08:57:29;;;;;;;;;1.50;1.50;;;;;20.05;61.67;99697.14;105385;1281;18634;-61
2022/12/23 08:59:57;;;;;;;;;2.00;2.00;;;;;20.05;61.50;99695.76;105394;1298;23703;-60
2022/12/23 09:02:24;;;;;;;;;2.00;2.00;;;;;20.05;61.49;99696.26;105422;1291;19394;-59
2022/12/23 09:04:52;;;;;;;;;2.00;2.00;;;;;20.06;61.57;99695.21;105363;1284;18493;-60
2022/12/23 09:07:19;;;;;;;;;4.00;4.00;;;;;20.07;61.62;99691.80;105387;1298;20046;-60
2022/12/23 09:09:47;;;;;;;;;2.00;2.00;;;;;20.09;61.36;99693.55;105412;1300;19678;-62
2022/12/23 09:12:14;;;;;;;;;2.00;2.00;;;;;20.08;61.67;99691.17;105320;1292;18566;-63
2022/12/23 09:14:41;;;;;;;;;2.00;2.00;;;;;20.08;61.57;99686.61;105285;1281;20004;-61
2022/12/23 09:17:09;;;;;;;;;4.00;4.00;;;;;20.09;61.44;99684.11;105355;1282;19584;-63
2022/12/23 09:19:36;;;;;;;;;2.00;2.00;;;;;20.11;61.85;99679.15;105385;1297;19516;-61
2022/12/23 09:22:04;;;;;;;;;2.00;2.00;;;;;20.12;61.76;99668.85;105395;1290;20304;-59
2022/12/23 09:24:31;;;;;;;;;2.00;2.00;;;;;20.14;61.90;99658.28;105409;1282;20888;-61
2022/12/23 09:26:59;;;;;;;;;2.00;2.00;;;;;20.16;61.98;99656.33;105192;1282;18248;-59
2022/12/23 09:29:26;;;;;;;;;2.00;2.00;;;;;20.16;61.93;99655.42;105335;1282;19860;-59
2022/12/23 09:31:53;;;;;;;;;5.00;4.00;;;;;20.17;62.12;99651.66;105341;1274;20070;-58
2022/12/23 09:34:21;;;;;;;;;2.00;2.00;;;;;20.17;61.88;99648.77;105358;1275;18704;-58
2022/12/23 09:36:48;;;;;;;;;2.00;2.00;;;;;20.18;61.91;99643.33;105356;1275;18824;-60
2022/12/23 09:39:16;;;;;;;;;;;;;;;20.20;61.89;99644.63;105359;1290;22492;-60
2022/12/23 09:41:43;;;;;;;;;;;;;;;20.17;61.72;99643.16;105376;1275;22924;-60
2022/12/23 09:44:11;;;;;;;;;2.00;2.00;;;;;20.14;62.22;99640.87;105380;1282;19664;-60
2022/12/23 09:46:39;;;;;;;;;2.00;2.00;;;;;20.11;62.13;99639.10;105388;1291;21827;-60
2022/12/23 09:49:06;;;;;;;;;2.00;2.00;;;;;20.09;62.30;99638.61;105380;1298;19540;-59
2022/12/23 09:51:33;;;;;;;;;2.00;2.00;;;;;20.09;62.11;99636.81;105401;1283;22837;-61
2022/12/23 09:54:01;;;;;;;;;;;;;;;20.08;62.11;99635.85;105368;1291;21072;-59
2022/12/23 09:56:28;;;;;;;;;2.00;2.00;;;;;20.06;62.10;99635.84;105412;1284;21020;-60
2022/12/23 09:58:56;;;;;;;;;2.00;2.00;;;;;20.06;62.12;99632.63;105360;1291;18531;-60
2022/12/23 10:01:23;;;;;;;;;2.00;2.00;;;;;20.06;62.05;99634.13;105366;1291;21169;-60
2022/12/23 10:03:51;;;;;;;;;2.00;2.00;;;;;20.07;62.03;99630.16;105448;1282;19545;-60
2022/12/23 10:06:18;;;;;;;;;2.00;2.00;;;;;20.06;61.96;99634.88;105376;1297;20234;-62
2022/12/23 10:08:45;;;;;;;;;2.00;2.00;;;;;20.05;62.00;99630.06;105282;1282;19722;-61
2022/12/23 10:11:13;;;;;;;;;2.00;2.00;;;;;20.05;61.81;99632.98;105390;1282;19726;-61
2022/12/23 10:13:40;;;;;;;;;4.50;4.00;;;;;20.06;61.69;99626.66;105357;1284;32426;-63
2022/12/23 10:16:08;;;;;;;;;4.00;4.00;;;;;20.07;61.46;99626.59;105400;1300;20609;-61
2022/12/23 10:18:35;;;;;;;;;4.00;4.00;;;;;20.09;61.58;99619.61;105315;1277;23999;-62
2022/12/23 10:21:03;;;;;;;;;2.00;2.00;;;;;20.10;61.50;99616.90;105396;1282;20001;-61
2022/12/23 10:23:30;;;;;;;;;5.00;5.00;;;;;20.12;61.40;99613.00;105387;1278;19801;-62
2022/12/23 10:25:58;;;;;;;;;4.00;2.00;;;;;20.10;61.32;99609.27;105373;1283;22840;-62
2022/12/23 10:28:25;;;;;;;;;7.00;5.00;;;;;20.08;61.28;99603.33;105427;1297;18752;-60
2022/12/23 10:30:52;;;;;;;;;4.00;4.00;;;;;20.07;61.17;99600.39;105377;1291;19351;-61
2022/12/23 10:33:20;;;;;;;;;3.00;3.00;;;;;20.06;61.16;99602.03;105383;1297;20059;-61
2022/12/23 10:35:47;;;;;;;;;3.00;3.00;;;;;20.05;61.29;99598.93;105412;1292;23027;-61
2022/12/23 10:38:15;;;;;;;;;2.00;2.00;;;;;20.05;61.25;99599.27;105398;1285;22047;-62
2022/12/23 10:40:44;;;;;;;;;4.00;2.00;;;;;20.05;61.26;99591.98;105362;1282;22104;-62
2022/12/23 10:43:11;;;;;;;;;2.00;2.00;;;;;20.03;61.24;99585.65;105429;1300;22745;-62
2022/12/23 10:45:39;;;;;;;;;2.00;2.00;;;;;20.04;61.37;99587.91;105369;1288;20994;-61
2022/12/23 10:48:06;;;;;;;;;4.00;4.00;;;;;20.06;61.24;99586.29;105385;1300;22909;-61
2022/12/23 10:50:33;;;;;;;;;4.00;4.00;;;;;20.05;61.11;99592.39;105356;1297;20266;-62
2022/12/23 10:53:01;;;;;;;;;1.00;1.00;;;;;20.04;61.29;99590.83;105366;1274;21140;-61
2022/12/23 10:55:29;;;;;;;;;3.00;2.00;;;;;20.04;61.28;99592.71;105416;1284;20307;-61
2022/12/23 10:57:56;;;;;;;;;4.00;3.00;;;;;20.04;61.18;99596.27;105440;1277;18542;-61
2022/12/23 11:00:23;;;;;;;;;;;;;;;20.05;61.10;99594.15;105379;1290;20803;-61
2022/12/23 11:02:51;;;;;;;;;2.00;2.00;;;;;20.05;61.09;99595.46;105384;1282;18450;-62
2022/12/23 11:05:18;;;;;;;;;3.50;3.50;;;;;20.03;60.98;99595.19;105381;1298;20175;-62
2022/12/23 11:07:46;;;;;;;;;4.00;4.00;;;;;20.03;61.16;99595.85;105391;1300;19307;-62
2022/12/23 11:10:13;;;;;;;;;2.00;2.00;;;;;20.02;61.31;99596.73;105397;1300;18408;-61
2022/12/23 11:12:41;;;;;;;;;;;;;;;20.02;61.14;99596.69;105294;1290;18530;-62
2022/12/23 11:15:08;;;;;;;;;5.00;4.00;;;;;20.02;61.03;99597.90;105422;1282;20846;-61
2022/12/23 11:17:36;;;;;;;;;4.00;4.00;;;;;20.01;61.12;99599.19;105350;1284;20605;-61
2022/12/23 11:20:03;;;;;;;;;2.00;2.00;;;;;20.01;61.01;99596.10;105363;1291;22755;-62
2022/12/23 11:22:30;;;;;;;;;4.00;3.00;;;;;20.00;60.95;99595.60;105390;1300;21027;-61
2022/12/23 11:24:58;;;;;;;;;2.00;2.00;;;;;19.98;61.13;99596.39;105277;1300;19699;-61
2022/12/23 11:27:25;;;;;;;;;2.00;2.00;;;;;19.99;61.04;99601.54;105252;1278;20005;-61
2022/12/23 11:29:53;;;;;;;;;2.00;2.00;;;;;20.00;60.89;99600.80;105273;1282;21603;-61
2022/12/23 11:32:20;;;;;;;;;2.00;2.00;;;;;19.99;61.00;99598.31;105348;1300;18400;-61
2022/12/23 11:34:48;;;;;;;;;2.00;2.00;;;;;19.99;60.87;99605.09;105300;1291;19051;-61
2022/12/23 11:37:15;;;;;;;;;12.00;10.50;;;;;19.99;61.02;99611.99;105336;1300;22486;-61
2022/12/23 11:39:42;;;;;;;;;14.00;11.00;;;;;19.97;60.46;99612.42;105323;1300;19876;-60
2022/12/23 11:42:10;;;;;;;;;9.00;8.00;;;;;19.94;59.83;99607.52;105350;1274;18842;-61
2022/12/23 11:44:37;;;;;;;;;7.00;7.00;;;;;19.94;59.74;99607.15;105220;1282;20756;-61
2022/12/23 11:47:05;;;;;;;;;7.00;7.00;;;;;19.96;59.94;99607.06;105228;1298;19895;-62
2022/12/23 11:49:32;;;;;;;;;5.00;5.00;;;;;19.97;59.82;99608.92;105350;1300;19018;-62
2022/12/23 11:52:00;;;;;;;;;5.00;5.00;;;;;19.99;59.90;99610.11;105395;1296;19380;-61
2022/12/23 11:54:27;;;;;;;;;4.00;4.00;;;;;19.99;59.71;99611.16;105375;1274;19650;-60
2022/12/23 11:56:55;;;;;;;;;5.00;5.00;;;;;20.00;59.77;99603.38;105349;1300;18668;-61
2022/12/23 11:59:23;;;;;;;;;4.50;4.50;;;;;20.00;59.77;99592.58;105347;1299;19272;-61